Startpagina
METAR-TAF:

METAR-TAF

Vliegvelden :

Dijon, Frankrijk

breedte: 47-16N, lengte: 005-05E, hoogte: 222 m

Actueel weer

Dit bericht is 28 minuten geleden gemaakt, om 02:30 UTC
Wind 2 kt uit variabele richting
Temperatuur -4°C
Vochtigheid 100%
Druk 1025 hPa
Zicht: 0500 m
onderkoelde mist

METAR: LFSD 240230Z AUTO VRB02KT 0500 R35/0600N FZFG VV/// M04/M04 Q1025

Tijdstip: 03:58 (02:58 UTC)


TAF: ontbreekt

Waarnemingen en weersverwachtingen van meer dan 4000 vliegvelden (METAR en TAF).

De beschikbare stations zijn de gele en rode punten op de kaart.

Ga met uw muis naar het station om de naam te zien.

Klik dan om waarnemingen en weersverwachtingen te zien.

kaart wijzigen: klik op de groene knoppen met een zwart kruis om in te zoomen, op de groene knop met een streepje om uit te zoomen of op de groene pijlen voor aangrenzende kaarten.


METAR-TAF: